Time;durP1;ratioP1;P1;durP2;ratioP2;P2;SDS_P1;SDS_P2;PMS_P1;PMS_P2;Temp;Humidity;BMP_temperature;BMP_pressure;BME280_temperature;BME280_humidity;BME280_pressure;Samples;Min_cycle;Max_cycle;Signal;HPM_P1;HPM_P2
2020/12/07 00:00:46;;;;;;;59.65;29.30;;;3.00;98.40;;;;;;5028197;28;20128;-69
2020/12/07 00:03:12;;;;;;;70.00;32.10;;;2.90;98.60;;;;;;5027080;28;20056;-67
2020/12/07 00:05:39;;;;;;;55.63;27.48;;;3.00;98.60;;;;;;5025213;28;20127;-69
2020/12/07 00:08:05;;;;;;;67.63;30.17;;;2.90;98.60;;;;;;5028366;28;20137;-69
2020/12/07 00:10:31;;;;;;;59.67;29.48;;;2.90;98.60;;;;;;5028198;28;20140;-70
2020/12/07 00:12:58;;;;;;;65.88;30.48;;;3.00;98.50;;;;;;5028510;28;20061;-69
2020/12/07 00:15:24;;;;;;;56.95;28.13;;;3.00;98.30;;;;;;5026243;28;20081;-67
2020/12/07 00:17:52;;;;;;;77.13;33.40;;;3.00;98.50;;;;;;5028043;28;20045;-68
2020/12/07 00:20:18;;;;;;;70.32;31.52;;;3.00;98.40;;;;;;5027107;28;20135;-67
2020/12/07 00:22:45;;;;;;;65.65;31.02;;;3.00;98.40;;;;;;5028301;28;20136;-68
2020/12/07 00:25:11;;;;;;;55.15;27.80;;;3.00;98.50;;;;;;5027993;28;20555;-68
2020/12/07 00:27:37;;;;;;;72.78;32.33;;;3.00;98.30;;;;;;5024510;28;20067;-67
2020/12/07 00:30:05;;;;;;;72.03;31.73;;;3.00;98.40;;;;;;5027497;28;20076;-67
2020/12/07 00:32:33;;;;;;;72.57;33.25;;;3.00;98.20;;;;;;5027769;28;20049;-67
2020/12/07 00:35:00;;;;;;;56.38;28.80;;;3.10;98.20;;;;;;5030172;28;20049;-67
2020/12/07 00:37:27;;;;;;;62.15;29.52;;;3.00;98.20;;;;;;5027916;28;20548;-68
2020/12/07 00:39:53;;;;;;;64.78;30.38;;;3.00;98.40;;;;;;5031763;28;20049;-68
2020/12/07 00:42:19;;;;;;;81.20;33.28;;;3.00;98.60;;;;;;5032109;28;20578;-67
2020/12/07 00:44:46;;;;;;;79.55;34.30;;;3.00;98.50;;;;;;5032157;28;20124;-68
2020/12/07 00:47:12;;;;;;;73.03;32.25;;;3.00;98.50;;;;;;5031334;28;20045;-67
2020/12/07 00:49:39;;;;;;;61.30;28.88;;;3.00;98.40;;;;;;5031633;28;20100;-68
2020/12/07 00:52:07;;;;;;;79.82;33.60;;;3.10;98.30;;;;;;5032099;28;20041;-68
2020/12/07 00:54:34;;;;;;;70.20;33.10;;;3.10;98.30;;;;;;5032038;28;20081;-68
2020/12/07 00:57:01;;;;;;;65.20;31.13;;;3.10;98.40;;;;;;5031364;28;20050;-67
2020/12/07 00:59:31;;;;;;;65.05;29.15;;;3.10;98.30;;;;;;5029573;28;20057;-67
2020/12/07 01:01:59;;;;;;;54.75;29.25;;;3.00;98.40;;;;;;5031488;28;20434;-67
2020/12/07 01:04:25;;;;;;;77.82;33.40;;;2.90;98.60;;;;;;5032197;28;20128;-68
2020/12/07 01:06:52;;;;;;;69.00;30.80;;;3.00;98.70;;;;;;5031721;28;20049;-68
2020/12/07 01:09:20;;;;;;;59.92;28.02;;;3.00;98.60;;;;;;5031583;28;20116;-68
2020/12/07 01:11:53;;;;;;;74.57;31.00;;;2.90;98.50;;;;;;5028955;28;20358;-68
2020/12/07 01:14:21;;;;;;;75.22;33.85;;;2.90;98.70;;;;;;5030949;28;20046;-68
2020/12/07 01:16:48;;;;;;;87.35;34.97;;;2.90;98.70;;;;;;5031247;28;20096;-68
2020/12/07 01:19:15;;;;;;;60.95;30.25;;;2.90;98.70;;;;;;5029111;28;20406;-68
2020/12/07 01:21:41;;;;;;;63.10;30.27;;;2.90;98.80;;;;;;5031728;28;20146;-68
2020/12/07 01:24:08;;;;;;;61.70;28.40;;;2.80;98.90;;;;;;5031109;28;20124;-68
2020/12/07 01:26:34;;;;;;;75.30;31.02;;;2.80;98.90;;;;;;5029600;28;20533;-67
2020/12/07 01:29:04;;;;;;;75.15;30.33;;;2.80;99.10;;;;;;5031127;28;20073;-68
2020/12/07 01:31:30;;;;;;;56.53;26.95;;;2.80;99.00;;;;;;5030515;28;20073;-68
2020/12/07 01:33:57;;;;;;;86.55;33.80;;;2.80;99.00;;;;;;5030447;28;20049;-68
2020/12/07 01:36:24;;;;;;;78.85;33.60;;;2.80;99.10;;;;;;5030020;28;20422;-68
2020/12/07 01:38:51;;;;;;;81.03;33.03;;;2.80;99.10;;;;;;5029968;28;20164;-68
2020/12/07 01:41:19;;;;;;;69.68;29.95;;;2.80;99.10;;;;;;5029075;28;20050;-68
2020/12/07 01:43:45;;;;;;;77.18;31.95;;;2.90;99.00;;;;;;5030775;28;20125;-68
2020/12/07 01:46:19;;;;;;;86.55;35.13;;;2.90;98.80;;;;;;5030370;28;20199;-68
2020/12/07 01:48:46;;;;;;;65.70;28.05;;;2.90;98.80;;;;;;5030452;28;20049;-68
2020/12/07 01:51:14;;;;;;;76.18;32.13;;;2.90;98.80;;;;;;5030004;28;20494;-68
2020/12/07 01:53:42;;;;;;;83.93;31.98;;;2.90;98.90;;;;;;5029080;28;20050;-68
2020/12/07 01:56:12;;;;;;;72.45;32.05;;;2.90;98.90;;;;;;5027279;28;20049;-68
2020/12/07 01:58:39;;;;;;;83.35;33.50;;;2.90;99.00;;;;;;5030311;28;20136;-68
2020/12/07 02:01:06;;;;;;;71.07;30.95;;;2.80;99.10;;;;;;5029678;28;20141;-68
2020/12/07 02:03:32;;;;;;;83.45;32.45;;;2.80;99.20;;;;;;5029781;28;20133;-68
2020/12/07 02:05:59;;;;;;;85.32;32.15;;;2.90;99.10;;;;;;5028770;28;20048;-68
2020/12/07 02:08:25;;;;;;;71.82;29.27;;;2.80;99.10;;;;;;5030716;28;20148;-68
2020/12/07 02:10:51;;;;;;;87.70;32.88;;;2.80;99.30;;;;;;5029946;28;20049;-68
2020/12/07 02:13:18;;;;;;;83.55;34.30;;;2.70;99.20;;;;;;5029302;28;20129;-68
2020/12/07 02:15:44;;;;;;;84.78;30.65;;;2.80;99.40;;;;;;5031094;28;20081;-68
2020/12/07 02:18:11;;;;;;;72.22;29.73;;;2.80;99.30;;;;;;5029712;28;20043;-68
2020/12/07 02:20:37;;;;;;;95.65;36.10;;;2.80;99.40;;;;;;5028250;28;20073;-68
2020/12/07 02:23:04;;;;;;;77.97;32.05;;;2.70;99.40;;;;;;5028820;28;20084;-68
2020/12/07 02:25:30;;;;;;;77.78;31.45;;;2.70;99.50;;;;;;5025852;28;20080;-68
2020/12/07 02:27:56;;;;;;;110.75;38.70;;;2.70;99.70;;;;;;5029318;28;20077;-68
2020/12/07 02:30:24;;;;;;;94.22;34.67;;;2.70;99.60;;;;;;5030698;28;20089;-68
2020/12/07 02:32:51;;;;;;;84.53;35.97;;;2.70;99.70;;;;;;5028264;28;20128;-68
2020/12/07 02:35:18;;;;;;;91.47;34.85;;;2.70;99.80;;;;;;5028918;28;20536;-68
2020/12/07 02:37:46;;;;;;;92.43;33.22;;;2.70;99.70;;;;;;5028638;28;20042;-68
2020/12/07 02:40:12;;;;;;;86.25;33.35;;;2.70;99.70;;;;;;5029318;28;20132;-68
2020/12/07 02:42:41;;;;;;;108.10;39.85;;;2.70;99.80;;;;;;5028464;28;20470;-68
2020/12/07 02:45:12;;;;;;;100.43;36.88;;;2.70;99.70;;;;;;5028923;28;20224;-68
2020/12/07 02:47:39;;;;;;;114.03;42.38;;;2.70;99.80;;;;;;5029753;28;20073;-68
2020/12/07 02:50:09;;;;;;;89.55;35.75;;;2.80;99.40;;;;;;5030070;28;20121;-68
2020/12/07 02:52:36;;;;;;;92.20;38.22;;;2.70;99.40;;;;;;5029894;28;20210;-68
2020/12/07 02:55:10;;;;;;;94.97;36.75;;;2.70;99.50;;;;;;5029009;28;20077;-68
2020/12/07 02:57:37;;;;;;;96.45;35.22;;;2.70;99.50;;;;;;5029791;28;20136;-68
2020/12/07 03:00:06;;;;;;;100.05;37.28;;;2.70;99.70;;;;;;5029105;28;20124;-68
2020/12/07 03:02:35;;;;;;;113.65;38.83;;;2.70;99.50;;;;;;5027855;28;20119;-68
2020/12/07 03:05:03;;;;;;;108.93;38.55;;;2.70;99.50;;;;;;5037751;28;20096;-68
2020/12/07 03:07:29;;;;;;;67.90;27.48;;;2.70;99.60;;;;;;5027850;28;20179;-68
2020/12/07 03:09:56;;;;;;;95.78;35.78;;;2.70;99.30;;;;;;5025964;28;20514;-68
2020/12/07 03:12:22;;;;;;;105.22;38.22;;;2.70;99.30;;;;;;5028042;28;20129;-68
2020/12/07 03:14:48;;;;;;;94.47;38.42;;;2.70;99.30;;;;;;5029559;28;20148;-68
2020/12/07 03:17:15;;;;;;;76.50;31.42;;;2.60;99.50;;;;;;5028903;28;20136;-69
2020/12/07 03:19:41;;;;;;;90.53;37.53;;;2.60;99.50;;;;;;5028897;28;20048;-68
2020/12/07 03:22:07;;;;;;;82.82;35.17;;;2.60;99.50;;;;;;5029197;28;20551;-68
2020/12/07 03:24:34;;;;;;;71.93;33.80;;;2.50;99.30;;;;;;5027695;28;20076;-68
2020/12/07 03:27:00;;;;;;;66.75;28.63;;;2.50;99.40;;;;;;5027218;28;20112;-68
2020/12/07 03:29:26;;;;;;;64.28;28.67;;;2.50;99.10;;;;;;5028036;28;20076;-68
2020/12/07 03:31:54;;;;;;;65.72;29.98;;;2.50;98.80;;;;;;5025477;28;20077;-68
2020/12/07 03:34:20;;;;;;;59.47;28.45;;;2.40;99.00;;;;;;5029203;28;20045;-68
2020/12/07 03:36:47;;;;;;;55.00;27.10;;;2.40;99.00;;;;;;5010658;28;20080;-69
2020/12/07 03:39:14;;;;;;;49.53;22.95;;;2.40;98.60;;;;;;5028289;28;20072;-68
2020/12/07 03:41:40;;;;;;;62.33;28.30;;;2.40;98.50;;;;;;5027134;28;20115;-69
2020/12/07 03:44:06;;;;;;;47.47;22.25;;;2.40;98.60;;;;;;5028365;28;20096;-68
2020/12/07 03:46:33;;;;;;;64.85;29.35;;;2.30;98.70;;;;;;5028695;28;20136;-69
2020/12/07 03:48:59;;;;;;;53.75;25.42;;;2.30;98.90;;;;;;5026921;28;20105;-68
2020/12/07 03:51:26;;;;;;;62.33;26.77;;;2.20;99.00;;;;;;5026073;28;20584;-68
2020/12/07 03:53:52;;;;;;;60.00;27.73;;;2.20;99.00;;;;;;5026673;28;20049;-68
2020/12/07 03:56:18;;;;;;;57.03;26.30;;;2.20;99.20;;;;;;5027817;28;20128;-68
2020/12/07 03:58:45;;;;;;;55.60;25.73;;;2.20;99.30;;;;;;5027021;28;20089;-68
2020/12/07 04:01:12;;;;;;;62.42;28.48;;;2.20;99.30;;;;;;5028162;28;20076;-68
2020/12/07 04:03:41;;;;;;;68.38;30.67;;;2.10;99.60;;;;;;5026508;28;20042;-69
2020/12/07 04:06:13;;;;;;;64.20;27.60;;;2.20;99.40;;;;;;5027934;28;20128;-68
2020/12/07 04:08:39;;;;;;;75.72;31.42;;;2.20;99.40;;;;;;5021963;28;20129;-68
2020/12/07 04:11:05;;;;;;;68.47;29.23;;;2.30;99.20;;;;;;5025667;28;20045;-69
2020/12/07 04:13:32;;;;;;;56.63;25.38;;;2.30;99.00;;;;;;5027320;28;20136;-69
2020/12/07 04:16:02;;;;;;;65.28;28.35;;;2.30;99.00;;;;;;5028410;28;20073;-69
2020/12/07 04:18:28;;;;;;;69.45;30.52;;;2.30;99.20;;;;;;5026186;28;20069;-68
2020/12/07 04:20:59;;;;;;;74.10;32.00;;;2.30;99.30;;;;;;5027754;28;20053;-68
2020/12/07 04:23:28;;;;;;;59.15;24.30;;;2.30;99.30;;;;;;5028045;28;20103;-68
2020/12/07 04:25:55;;;;;;;71.18;28.75;;;2.30;99.10;;;;;;5028291;28;20042;-68
2020/12/07 04:28:22;;;;;;;58.60;27.38;;;2.20;99.10;;;;;;5026099;28;20077;-69
2020/12/07 04:30:49;;;;;;;70.00;30.38;;;2.20;99.40;;;;;;5027524;28;20124;-68
2020/12/07 04:33:16;;;;;;;58.03;26.10;;;2.30;99.50;;;;;;5026056;28;20077;-68
2020/12/07 04:35:42;;;;;;;61.83;29.85;;;2.30;99.00;;;;;;5027838;28;20419;-68
2020/12/07 04:38:08;;;;;;;60.13;27.13;;;2.20;99.20;;;;;;5027234;28;20073;-68
2020/12/07 04:40:35;;;;;;;72.43;30.35;;;2.30;99.20;;;;;;5028048;28;20592;-68
2020/12/07 04:43:02;;;;;;;47.83;23.02;;;2.20;99.30;;;;;;5028426;28;20139;-67
2020/12/07 04:45:30;;;;;;;70.93;30.40;;;2.20;99.10;;;;;;5027282;28;20092;-68
2020/12/07 04:47:59;;;;;;;71.18;30.30;;;2.30;99.10;;;;;;5026280;28;20045;-68
2020/12/07 04:50:29;;;;;;;66.03;29.25;;;2.30;99.10;;;;;;5030118;28;20168;-68
2020/12/07 04:52:57;;;;;;;54.78;23.52;;;2.30;99.20;;;;;;5026513;28;20057;-68
2020/12/07 04:55:25;;;;;;;62.25;27.48;;;2.30;99.20;;;;;;5028912;28;20095;-69
2020/12/07 04:57:53;;;;;;;47.13;22.27;;;2.20;99.30;;;;;;5027226;28;20379;-69
2020/12/07 05:00:24;;;;;;;58.55;25.35;;;2.20;99.40;;;;;;5026351;28;20310;-69
2020/12/07 05:02:52;;;;;;;47.15;22.30;;;2.20;99.20;;;;;;5026345;28;20045;-68
2020/12/07 05:05:20;;;;;;;49.88;22.77;;;2.20;99.10;;;;;;5027529;28;20073;-68
2020/12/07 05:07:51;;;;;;;62.72;27.25;;;2.30;99.20;;;;;;5027927;28;20128;-68
2020/12/07 05:10:32;;;;;;;67.80;30.15;;;2.30;99.10;;;;;;5027063;28;20046;-68
2020/12/07 05:13:13;;;;;;;63.88;25.70;;;2.30;99.00;;;;;;5026293;28;20045;-68
2020/12/07 05:15:41;;;;;;;56.42;25.25;;;2.20;99.30;;;;;;5027075;28;20107;-68
2020/12/07 05:18:07;;;;;;;76.70;30.05;;;2.20;99.40;;;;;;5027120;28;20132;-69
2020/12/07 05:20:34;;;;;;;72.13;30.15;;;2.20;99.40;;;;;;5027808;28;20124;-69
2020/12/07 05:23:01;;;;;;;61.28;23.05;;;2.20;99.20;;;;;;5029624;28;20132;-68
2020/12/07 05:25:28;;;;;;;68.72;26.33;;;2.20;99.30;;;;;;5031523;28;20068;-68
2020/12/07 05:27:57;;;;;;;51.90;22.13;;;2.10;99.60;;;;;;5029436;28;20056;-68
2020/12/07 05:30:30;;;;;;;64.07;26.92;;;2.10;99.60;;;;;;5018984;28;20041;-68
2020/12/07 05:33:01;;;;;;;67.15;29.27;;;2.10;99.60;;;;;;5030033;28;20049;-69
2020/12/07 05:35:27;;;;;;;69.90;29.10;;;2.10;99.60;;;;;;5029466;28;20134;-68
2020/12/07 05:38:01;;;;;;;67.00;28.50;;;2.00;99.70;;;;;;5029510;28;20462;-69
2020/12/07 05:40:28;;;;;;;69.15;29.63;;;2.10;99.50;;;;;;5028957;28;20140;-69
2020/12/07 05:42:56;;;;;;;73.07;30.02;;;2.00;99.40;;;;;;5028160;28;20084;-69
2020/12/07 05:45:23;;;;;;;73.60;29.85;;;2.10;99.50;;;;;;5028399;28;20136;-69
2020/12/07 05:47:53;;;;;;;78.35;33.20;;;2.10;99.40;;;;;;5029832;28;20203;-69
2020/12/07 05:50:21;;;;;;;71.80;30.10;;;2.10;99.70;;;;;;5027133;28;20057;-69
2020/12/07 05:52:50;;;;;;;72.57;31.85;;;2.10;99.50;;;;;;5028060;28;20136;-69
2020/12/07 05:55:18;;;;;;;79.22;29.92;;;2.10;99.40;;;;;;5027006;28;20057;-69
2020/12/07 05:58:03;;;;;;;62.70;25.52;;;2.10;99.50;;;;;;5031277;28;20494;-69
2020/12/07 06:00:31;;;;;;;66.55;25.05;;;2.20;99.30;;;;;;5032814;28;20103;-69
2020/12/07 06:02:59;;;;;;;74.70;28.10;;;2.10;99.10;;;;;;5029747;28;20060;-69
2020/12/07 06:05:25;;;;;;;70.68;29.45;;;2.10;99.20;;;;;;5030661;28;20128;-69
2020/12/07 06:08:23;;;;;;;71.93;30.23;;;2.10;99.20;;;;;;5028853;28;20042;-69
2020/12/07 06:10:58;;;;;;;79.65;31.05;;;2.10;99.20;;;;;;5026248;28;20080;-69
2020/12/07 06:13:26;;;;;;;68.72;28.90;;;2.00;99.10;;;;;;5028862;28;20055;-69
2020/12/07 06:15:54;;;;;;;82.97;33.03;;;2.00;99.40;;;;;;5029246;28;20042;-69
2020/12/07 06:18:35;;;;;;;77.95;28.77;;;2.00;99.50;;;;;;5028572;28;20080;-69
2020/12/07 06:21:06;;;;;;;75.40;29.42;;;2.00;99.60;;;;;;5028815;28;20107;-69
2020/12/07 06:23:37;;;;;;;80.60;32.55;;;2.00;99.50;;;;;;5029148;28;20557;-69
2020/12/07 06:26:06;;;;;;;60.50;25.67;;;1.90;99.60;;;;;;5028169;28;20514;-69
2020/12/07 06:28:35;;;;;;;71.47;29.40;;;2.00;99.40;;;;;;5030044;28;20128;-69
2020/12/07 06:31:05;;;;;;;79.47;32.03;;;2.00;99.40;;;;;;5030770;28;20053;-69
2020/12/07 06:33:46;;;;;;;76.80;34.42;;;2.10;99.30;;;;;;5029778;28;20426;-69
2020/12/07 06:36:27;;;;;;;61.13;24.33;;;2.00;99.40;;;;;;5030470;28;20124;-69
2020/12/07 06:38:59;;;;;;;77.28;32.40;;;2.00;99.30;;;;;;5030222;28;20136;-69
2020/12/07 06:41:38;;;;;;;53.50;26.08;;;1.90;99.50;;;;;;5028959;28;20058;-69
2020/12/07 06:44:13;;;;;;;56.72;25.83;;;1.90;99.60;;;;;;5030219;28;20051;-69
2020/12/07 06:46:53;;;;;;;61.63;27.45;;;1.80;99.60;;;;;;5029848;28;20447;-69
2020/12/07 06:49:25;;;;;;;46.28;22.75;;;1.90;99.60;;;;;;5030185;28;20045;-69
2020/12/07 06:52:02;;;;;;;65.60;30.60;;;1.80;99.60;;;;;;5030096;28;20234;-69
2020/12/07 06:57:24;;;;;;;46.22;20.63;;;1.90;99.40;;;;;;5030056;28;20077;-69
2020/12/07 07:00:09;;;;;;;49.97;23.63;;;1.80;99.60;;;;;;5029770;28;20514;-69
2020/12/07 07:02:42;;;;;;;60.40;24.63;;;1.80;99.50;;;;;;5030185;28;20128;-68
2020/12/07 07:05:11;;;;;;;43.13;20.00;;;1.80;99.60;;;;;;5029593;28;20597;-69
2020/12/07 07:07:38;;;;;;;49.58;22.58;;;1.80;99.60;;;;;;5029526;28;20072;-68
2020/12/07 07:10:06;;;;;;;42.22;20.05;;;1.80;99.60;;;;;;5029282;28;20132;-68
2020/12/07 07:12:33;;;;;;;48.58;22.48;;;1.80;99.60;;;;;;5030144;28;20128;-68
2020/12/07 07:15:00;;;;;;;50.35;21.50;;;1.80;99.60;;;;;;5029505;28;20128;-68
2020/12/07 07:17:29;;;;;;;52.15;23.67;;;1.80;99.70;;;;;;5027048;28;20545;-69
2020/12/07 07:19:56;;;;;;;49.20;23.23;;;1.90;99.60;;;;;;5020992;28;20108;-69
2020/12/07 07:22:24;;;;;;;45.08;22.13;;;1.90;99.60;;;;;;5028831;28;20455;-68
2020/12/07 07:24:57;;;;;;;50.92;23.63;;;1.90;99.30;;;;;;5028392;28;20041;-69
2020/12/07 07:30:11;;;;;;;45.25;19.73;;;1.90;99.40;;;;;;5026200;28;20518;-69
2020/12/07 07:32:40;;;;;;;47.22;23.48;;;1.90;99.20;;;;;;5028555;28;20045;-69
2020/12/07 07:35:10;;;;;;;51.38;22.88;;;1.90;99.30;;;;;;5028301;28;20124;-68
2020/12/07 07:37:38;;;;;;;47.33;22.75;;;2.00;99.20;;;;;;5028089;28;20447;-69
2020/12/07 07:40:07;;;;;;;57.58;27.08;;;2.00;99.20;;;;;;5027797;28;20498;-69
2020/12/07 07:43:03;;;;;;;50.28;24.33;;;2.00;99.30;;;;;;5028752;28;20142;-69
2020/12/07 07:45:33;;;;;;;47.63;22.17;;;2.00;99.30;;;;;;5021075;28;20224;-69
2020/12/07 07:51:02;;;;;;;52.63;22.38;;;2.00;99.20;;;;;;5028857;28;20117;-69
2020/12/07 08:15:57;;;;;;;36.25;18.77;;;2.10;99.20;;;;;;5028470;28;20093;-68
2020/12/07 08:18:34;;;;;;;52.25;24.52;;;2.10;99.20;;;;;;5028025;28;20046;-68
2020/12/07 08:21:02;;;;;;;46.03;24.20;;;2.10;99.30;;;;;;5028179;28;20107;-68
2020/12/07 08:23:29;;;;;;;44.47;22.23;;;2.20;99.20;;;;;;5027424;28;20056;-68
2020/12/07 08:25:57;;;;;;;44.63;24.13;;;2.20;99.00;;;;;;5028312;28;20072;-68
2020/12/07 08:28:38;;;;;;;49.53;25.83;;;2.30;98.80;;;;;;5028124;28;20103;-68
2020/12/07 08:31:18;;;;;;;42.13;22.23;;;2.20;98.40;;;;;;5026732;28;20069;-68
2020/12/07 08:34:03;;;;;;;37.55;19.63;;;2.30;98.50;;;;;;5028169;28;20114;-68
2020/12/07 08:36:31;;;;;;;44.67;21.65;;;2.20;98.50;;;;;;5026200;28;20128;-68
2020/12/07 08:38:58;;;;;;;42.90;22.15;;;2.30;98.70;;;;;;5028043;28;20041;-68
2020/12/07 08:41:30;;;;;;;44.63;23.77;;;2.30;98.50;;;;;;5028318;28;20081;-68
2020/12/07 08:44:00;;;;;;;46.33;20.77;;;2.30;98.40;;;;;;5028051;28;20041;-68
2020/12/07 08:46:29;;;;;;;34.50;16.15;;;2.30;98.70;;;;;;5028027;28;20482;-68
2020/12/07 08:48:56;;;;;;;39.60;20.48;;;2.30;98.20;;;;;;5027916;28;20463;-68
2020/12/07 08:51:27;;;;;;;40.72;21.35;;;2.40;98.40;;;;;;5026991;28;20077;-68
2020/12/07 08:53:55;;;;;;;41.10;21.42;;;2.30;98.50;;;;;;5009782;28;20077;-68
2020/12/07 08:56:21;;;;;;;45.92;24.15;;;2.30;98.60;;;;;;5030085;28;20137;-68
2020/12/07 08:58:48;;;;;;;30.27;15.23;;;2.40;98.60;;;;;;5011872;28;20089;-68
2020/12/07 09:01:14;;;;;;;48.53;24.90;;;2.30;98.40;;;;;;5028437;28;20084;-68
2020/12/07 09:03:42;;;;;;;50.00;26.20;;;2.30;98.50;;;;;;5031507;28;20053;-68
2020/12/07 09:06:11;;;;;;;35.58;19.33;;;2.40;98.60;;;;;;5031269;28;20081;-68
2020/12/07 09:08:38;;;;;;;42.38;22.85;;;2.40;98.30;;;;;;5027293;28;20099;-68
2020/12/07 09:11:11;;;;;;;36.42;20.02;;;2.50;98.30;;;;;;5028423;28;20140;-68
2020/12/07 09:13:39;;;;;;;;;;;2.60;98.10;;;;;;5032371;28;20104;-68
2020/12/07 09:16:06;;;;;;;42.92;22.50;;;2.60;98.20;;;;;;5023243;28;20412;-68
2020/12/07 09:18:32;;;;;;;40.70;20.45;;;2.70;98.10;;;;;;5030299;28;20072;-68
2020/12/07 09:20:59;;;;;;;41.45;22.60;;;2.70;97.90;;;;;;5024983;28;20148;-68
2020/12/07 09:23:25;;;;;;;37.75;19.42;;;2.70;97.70;;;;;;5023856;28;20085;-68
2020/12/07 09:25:53;;;;;;;40.47;22.05;;;2.70;97.70;;;;;;5024248;28;20445;-68
2020/12/07 09:28:20;;;;;;;46.53;23.33;;;2.70;98.00;;;;;;5029307;28;20126;-68
2020/12/07 09:30:46;;;;;;;31.75;15.90;;;2.70;97.80;;;;;;5030156;28;20533;-68
2020/12/07 09:33:13;;;;;;;29.05;14.98;;;2.70;97.90;;;;;;5031188;28;20447;-68
2020/12/07 09:35:40;;;;;;;36.35;19.98;;;2.70;97.50;;;;;;5031060;28;20144;-68
2020/12/07 09:38:07;;;;;;;36.22;21.48;;;2.80;97.70;;;;;;5029728;28;20073;-68
2020/12/07 09:40:35;;;;;;;36.25;18.92;;;2.80;97.10;;;;;;5030313;28;20068;-68
2020/12/07 09:43:02;;;;;;;50.25;27.02;;;2.80;97.60;;;;;;5030703;28;20152;-68
2020/12/07 09:45:29;;;;;;;39.63;21.27;;;2.90;97.70;;;;;;5029378;28;20099;-68
2020/12/07 09:47:55;;;;;;;45.72;27.05;;;2.90;97.80;;;;;;5028754;28;20081;-68
2020/12/07 09:50:22;;;;;;;38.97;22.42;;;3.00;97.70;;;;;;5026789;28;20128;-68
2020/12/07 09:52:48;;;;;;;41.60;21.92;;;3.00;97.40;;;;;;5023574;28;20510;-68
2020/12/07 09:55:14;;;;;;;30.70;18.90;;;2.90;97.60;;;;;;5027766;28;20052;-68
2020/12/07 09:57:41;;;;;;;38.88;21.08;;;2.90;97.20;;;;;;5025873;28;20049;-68
2020/12/07 10:00:07;;;;;;;38.20;22.77;;;3.00;96.30;;;;;;5027921;28;20490;-68
2020/12/07 10:02:35;;;;;;;29.02;16.75;;;2.90;96.90;;;;;;5028588;28;20402;-68
2020/12/07 10:05:03;;;;;;;37.78;20.85;;;2.70;97.10;;;;;;5018883;28;20527;-68
2020/12/07 10:07:30;;;;;;;37.53;22.65;;;2.70;98.00;;;;;;5019277;28;20100;-68
2020/12/07 10:09:57;;;;;;;33.95;20.05;;;2.70;98.00;;;;;;5026033;28;20053;-68
2020/12/07 10:12:23;;;;;;;38.13;20.90;;;2.60;97.80;;;;;;5029720;28;20100;-68
2020/12/07 10:14:50;;;;;;;37.75;20.75;;;2.80;97.20;;;;;;5029989;28;20077;-68
2020/12/07 10:17:16;;;;;;;35.05;18.63;;;2.90;97.20;;;;;;5029999;28;20144;-68
2020/12/07 10:19:43;;;;;;;30.88;17.48;;;2.80;97.00;;;;;;5028931;28;20489;-68
2020/12/07 10:22:09;;;;;;;32.70;16.42;;;2.70;97.30;;;;;;5026261;28;20518;-68
2020/12/07 10:24:35;;;;;;;36.08;18.65;;;2.60;96.60;;;;;;5027897;28;20072;-68
2020/12/07 10:27:01;;;;;;;25.63;14.45;;;2.60;96.80;;;;;;5028412;28;20053;-68
2020/12/07 10:29:28;;;;;;;34.60;18.15;;;2.50;96.70;;;;;;5029384;28;20100;-68
2020/12/07 10:31:56;;;;;;;32.45;16.20;;;2.60;97.20;;;;;;5028540;28;20597;-68
2020/12/07 10:34:25;;;;;;;33.75;16.35;;;2.50;97.20;;;;;;5029562;28;20525;-68
2020/12/07 10:36:52;;;;;;;27.83;14.80;;;2.50;97.50;;;;;;5029385;28;20131;-68
2020/12/07 10:39:18;;;;;;;35.70;17.92;;;2.40;97.50;;;;;;5029728;28;20081;-68
2020/12/07 10:41:45;;;;;;;36.53;17.77;;;2.30;97.80;;;;;;5029422;28;20080;-68
2020/12/07 10:44:11;;;;;;;42.47;17.27;;;2.30;97.60;;;;;;5027149;28;20041;-67
2020/12/07 10:46:37;;;;;;;37.33;18.13;;;2.10;98.30;;;;;;5023486;28;20125;-68
2020/12/07 10:49:08;;;;;;;38.78;17.92;;;2.00;98.70;;;;;;5026955;28;20140;-68
2020/12/07 10:51:34;;;;;;;46.92;21.67;;;2.00;99.00;;;;;;5019981;28;20103;-68
2020/12/07 10:54:02;;;;;;;49.38;22.20;;;2.10;99.20;;;;;;5029822;28;20662;-68
2020/12/07 10:56:28;;;;;;;33.50;15.18;;;2.20;98.80;;;;;;5029919;28;20115;-69
2020/12/07 10:58:55;;;;;;;42.50;20.75;;;2.20;98.10;;;;;;5027934;28;20045;-68
2020/12/07 11:01:21;;;;;;;35.85;17.75;;;2.20;98.20;;;;;;5029282;28;20126;-68
2020/12/07 11:03:49;;;;;;;48.03;22.08;;;2.20;98.70;;;;;;5029117;28;20049;-67
2020/12/07 11:06:19;;;;;;;44.78;19.88;;;2.30;98.40;;;;;;5029236;28;20519;-68
2020/12/07 11:08:51;;;;;;;32.97;14.85;;;2.30;98.20;;;;;;5028411;28;20246;-68
2020/12/07 11:11:19;;;;;;;34.10;16.50;;;2.30;97.50;;;;;;5029434;28;20124;-68
2020/12/07 11:13:46;;;;;;;36.20;16.60;;;2.40;97.50;;;;;;5028566;28;20135;-68
2020/12/07 11:16:14;;;;;;;32.42;17.25;;;2.40;97.50;;;;;;5028075;28;20092;-68
2020/12/07 11:18:41;;;;;;;35.35;16.67;;;2.50;97.40;;;;;;5027965;28;20076;-68
2020/12/07 11:21:15;;;;;;;35.35;18.17;;;2.60;97.30;;;;;;5028229;28;20560;-68
2020/12/07 11:23:44;;;;;;;29.35;15.88;;;2.70;97.50;;;;;;5027150;28;20085;-68
2020/12/07 11:26:11;;;;;;;32.05;17.13;;;2.80;96.70;;;;;;5028819;28;20045;-68
2020/12/07 11:28:39;;;;;;;27.58;14.27;;;2.80;97.20;;;;;;5028268;28;20553;-68
2020/12/07 11:31:09;;;;;;;31.92;15.90;;;2.90;96.10;;;;;;5028430;28;20041;-69
2020/12/07 11:33:36;;;;;;;26.75;13.05;;;2.80;96.50;;;;;;5029303;28;20135;-69
2020/12/07 11:36:13;;;;;;;29.77;15.80;;;2.80;96.30;;;;;;5028557;28;20403;-68
2020/12/07 11:38:48;;;;;;;28.52;14.93;;;2.70;96.70;;;;;;5028666;28;20106;-68
2020/12/07 11:41:36;;;;;;;42.05;21.38;;;2.70;96.90;;;;;;5028552;28;20077;-68
2020/12/07 11:44:13;;;;;;;33.63;18.70;;;2.80;97.00;;;;;;5028501;28;20107;-68
2020/12/07 11:49:06;;;;;;;27.20;14.75;;;2.80;96.50;;;;;;5029032;28;20049;-68
2020/12/07 11:51:33;;;;;;;26.13;14.35;;;2.90;96.50;;;;;;5028558;28;20132;-68
2020/12/07 11:54:00;;;;;;;31.33;15.60;;;3.00;95.80;;;;;;5027003;28;20064;-68
2020/12/07 11:56:31;;;;;;;31.73;15.50;;;3.10;95.50;;;;;;5028062;28;20137;-68
2020/12/07 11:58:58;;;;;;;27.70;14.85;;;3.00;95.60;;;;;;5028019;28;20128;-68
2020/12/07 12:01:25;;;;;;;39.60;17.30;;;3.00;96.10;;;;;;5028872;28;20081;-68
2020/12/07 12:03:52;;;;;;;32.53;17.92;;;2.90;96.20;;;;;;5028590;28;20470;-68
2020/12/07 12:06:30;;;;;;;43.42;19.17;;;2.90;96.80;;;;;;5028311;28;20593;-68
2020/12/07 12:08:59;;;;;;;43.40;20.27;;;3.00;96.50;;;;;;5041674;28;20080;-68
2020/12/07 12:11:35;;;;;;;37.90;20.35;;;2.90;96.80;;;;;;5027933;28;20121;-68
2020/12/07 12:14:05;;;;;;;33.20;16.33;;;2.90;96.20;;;;;;5023450;28;20124;-68
2020/12/07 12:16:33;;;;;;;37.25;17.52;;;2.90;96.40;;;;;;5027210;28;20191;-68
2020/12/07 12:19:04;;;;;;;31.27;14.68;;;2.90;96.60;;;;;;5028270;28;20065;-68
2020/12/07 12:21:31;;;;;;;29.92;13.95;;;2.90;96.50;;;;;;5027514;28;20363;-68
2020/12/07 12:24:02;;;;;;;31.77;16.52;;;2.90;96.30;;;;;;5028065;28;20045;-68
2020/12/07 12:26:29;;;;;;;29.52;16.63;;;2.90;96.60;;;;;;5024763;28;20137;-68
2020/12/07 12:28:55;;;;;;;31.73;16.50;;;3.00;96.60;;;;;;5027585;28;20566;-68
2020/12/07 12:31:21;;;;;;;35.97;17.17;;;3.00;96.10;;;;;;5030407;28;20053;-68
2020/12/07 12:33:48;;;;;;;29.95;16.38;;;2.90;96.20;;;;;;5031827;28;20151;-68
2020/12/07 12:36:17;;;;;;;25.95;13.50;;;3.00;96.30;;;;;;5030717;28;20050;-68
2020/12/07 12:38:46;;;;;;;28.92;15.55;;;3.10;95.90;;;;;;5018936;28;20561;-68
2020/12/07 12:41:13;;;;;;;29.90;14.00;;;3.00;96.10;;;;;;5031587;28;20124;-68
2020/12/07 12:43:39;;;;;;;27.17;14.50;;;3.00;96.00;;;;;;5028055;28;20041;-68
2020/12/07 12:46:07;;;;;;;25.98;13.82;;;2.90;96.30;;;;;;5031720;28;20049;-68
2020/12/07 12:48:34;;;;;;;31.75;17.23;;;2.80;96.70;;;;;;5029110;28;20132;-68
2020/12/07 12:51:01;;;;;;;27.63;15.65;;;2.80;96.80;;;;;;5032576;28;20057;-68
2020/12/07 12:53:28;;;;;;;27.15;15.00;;;2.80;96.70;;;;;;5029758;28;20463;-68
2020/12/07 12:55:55;;;;;;;27.60;14.93;;;2.80;96.60;;;;;;5030507;28;20466;-68
2020/12/07 12:58:21;;;;;;;23.42;13.02;;;2.90;96.00;;;;;;5024586;28;20137;-68
2020/12/07 13:00:49;;;;;;;31.65;15.50;;;2.90;96.20;;;;;;5031267;28;20191;-68
2020/12/07 13:03:16;;;;;;;24.63;14.38;;;2.90;96.50;;;;;;5029753;28;20123;-68
2020/12/07 13:05:43;;;;;;;29.20;15.82;;;3.00;96.40;;;;;;5031742;28;20159;-69
2020/12/07 13:08:09;;;;;;;22.98;13.18;;;3.00;96.20;;;;;;5030903;28;20072;-68
2020/12/07 13:10:35;;;;;;;27.75;15.18;;;3.10;96.40;;;;;;5031407;28;20061;-68
2020/12/07 13:13:02;;;;;;;20.40;12.25;;;3.10;96.10;;;;;;5031611;28;20136;-68
2020/12/07 13:15:29;;;;;;;21.48;12.10;;;3.10;96.20;;;;;;5031820;28;20502;-68